Spirit Of Mount Vernon — WDC4321 — position and weather

sailwx.info

Track history (hours):
 
Tides and Currents Weather Stations Pressure Air Temp Water Temp Dewpoint Dewpoint Depression Visibility Wind Speed Wind Dir Waves Ship Positions

Spirit Of Mount Vernon

Owner: Spirit Cruises, washington, DC. More information available from US FCC via Universal Licensing System and Coast Guard Vessel Documentation Center.

Last reported at 2017-Nov-18 02:26 UTC. Time now 2017-Nov-18 17:53 UTC.
Position N 38°52' W 077°01'.

Length 50 m; draft 2.3 m.

Type: Passenger vessel. MMSI: 367022930.

Date/timePositionNaut miles runAvg speedWind from/ knotsBaromVisibWave heightAir tempDewpointWater temp
2017-Nov-18 02:26N 38°52' W 077°01'1 3.0
2017-Nov-18 02:00N 38°51' W 077°01'3 6.7
2017-Nov-18 01:30N 38°48' W 077°02'0 0.7
2017-Nov-18 01:00N 38°48' W 077°02'2 4.2
2017-Nov-18 00:30N 38°50' W 077°02'3 4.2
2017-Nov-17 23:49N 38°52' W 077°01'0 0.0
2017-Nov-17 23:29N 38°52' W 077°01'0 0.0
2017-Nov-17 22:53N 38°52' W 077°01'0 0.0
2017-Nov-17 22:27N 38°52' W 077°01'0 0.0
2017-Nov-17 21:59N 38°52' W 077°01'0 0.0
2017-Nov-17 21:26N 38°52' W 077°01'0 0.0
2017-Nov-17 20:58N 38°52' W 077°01'0 0.0
2017-Nov-16 02:32N 38°52' W 077°01'0 0.0
2017-Nov-16 02:26N 38°52' W 077°01'2 5.3
2017-Nov-16 02:00N 38°50' W 077°02'3 5.0
2017-Nov-16 01:30N 38°48' W 077°02'2 3.1
2017-Nov-16 00:58N 38°46' W 077°02'3 6.6
2017-Nov-16 00:30N 38°49' W 077°02'3 6.2
2017-Nov-15 23:57N 38°52' W 077°01'0 0.0
2017-Nov-15 23:30N 38°52' W 077°01'0 0.0
2017-Nov-15 23:00N 38°52' W 077°01'0 0.0
2017-Nov-15 22:28N 38°52' W 077°01'0 0.0
2017-Nov-15 22:00N 38°52' W 077°01'0 0.0
2017-Nov-15 21:30N 38°52' W 077°01'0 0.0
2017-Nov-15 20:57N 38°52' W 077°01'0 0.0
2017-Nov-15 20:30N 38°52' W 077°01'0 0.0
2017-Nov-15 01:59N 38°52' W 077°01'1 2.1
2017-Nov-15 01:30N 38°51' W 077°02'0 0.2
2017-Nov-15 01:00N 38°51' W 077°01'1 2.6
2017-Nov-15 00:30N 38°53' W 077°02'0 0.5
2017-Nov-14 23:58N 38°52' W 077°01'0 0.0
2017-Nov-14 23:28N 38°52' W 077°01'0 0.0
2017-Nov-14 22:58N 38°52' W 077°01'0 0.0
2017-Nov-14 22:29N 38°52' W 077°01'0 0.0
2017-Nov-14 21:58N 38°52' W 077°01'0 0.0
2017-Nov-14 21:28N 38°52' W 077°01'0 0.0
2017-Nov-14 20:59N 38°52' W 077°01'  
2017-Nov-12 03:15N 38°52' W 077°01'0 0.0
2017-Nov-12 03:00N 38°52' W 077°01'0 0.1
2017-Nov-12 02:26N 38°52' W 077°01'2 4.8
2017-Nov-12 01:57N 38°50' W 077°02'3 6.1
2017-Nov-12 01:29N 38°47' W 077°02'1 1.8
2017-Nov-12 01:00N 38°48' W 077°02'4 6.3
2017-Nov-12 00:24N 38°52' W 077°01'1 1.6
2017-Nov-11 23:59N 38°52' W 077°01'0 0.0
2017-Nov-11 23:28N 38°52' W 077°01'0 0.0
2017-Nov-11 22:58N 38°52' W 077°01'0 0.0
2017-Nov-11 22:28N 38°52' W 077°01'0 0.0
2017-Nov-11 21:59N 38°52' W 077°01'0 0.0
2017-Nov-11 03:04N 38°52' W 077°01'0 0.0
2017-Nov-11 03:00N 38°52' W 077°01'2 4.3
2017-Nov-11 02:30N 38°50' W 077°02'2 4.2
2017-Nov-11 01:59N 38°48' W 077°02'3 5.7
2017-Nov-11 01:29N 38°51' W 077°01'0 0.7
2017-Nov-11 01:00N 38°51' W 077°02'1 2.1
2017-Nov-11 00:28N 38°52' W 077°01'0 0.0
2017-Nov-10 23:58N 38°52' W 077°01'0 0.0
2017-Nov-10 23:25N 38°52' W 077°01'0 0.0
2017-Nov-10 22:58N 38°52' W 077°01'0 0.0
2017-Nov-10 22:28N 38°52' W 077°01'0 0.0
2017-Nov-10 21:58N 38°52' W 077°01'0 0.0
2017-Nov-10 02:35N 38°52' W 077°01'0 0.0
2017-Nov-10 02:29N 38°52' W 077°01'1 2.8
2017-Nov-10 01:59N 38°51' W 077°01'3 6.9
2017-Nov-10 01:29N 38°48' W 077°02'1 1.3
2017-Nov-10 01:00N 38°47' W 077°02'3 5.7
2017-Nov-10 00:30N 38°50' W 077°02'3 4.2
2017-Nov-09 23:53N 38°52' W 077°01'0 0.0
2017-Nov-09 23:24N 38°52' W 077°01'0 0.0
2017-Nov-09 22:54N 38°52' W 077°01'0 0.0
2017-Nov-09 22:28N 38°52' W 077°01'0 0.0
2017-Nov-09 21:59N 38°52' W 077°01'0 0.0
2017-Nov-09 21:29N 38°52' W 077°01'0 0.0
2017-Nov-09 20:56N 38°52' W 077°01'0 0.0
2017-Nov-09 20:30N 38°52' W 077°01'0 0.0
2017-Nov-09 03:04N 38°52' W 077°01'0 0.0
2017-Nov-09 03:00N 38°52' W 077°01'4 7.5
2017-Nov-09 02:29N 38°49' W 077°02'2 3.8
2017-Nov-09 01:58N 38°47' W 077°02'2 5.3
2017-Nov-09 01:30N 38°49' W 077°02'2 3.8
2017-Nov-09 01:00N 38°51' W 077°01'2 2.9
2017-Nov-09 00:29N 38°52' W 077°01'0 0.0
2017-Nov-08 23:46N 38°52' W 077°01'0 0.0
2017-Nov-08 23:27N 38°52' W 077°01'0 0.0
2017-Nov-08 23:00N 38°52' W 077°01'1 1.4
2017-Nov-08 22:27N 38°52' W 077°01'2 4.1
2017-Nov-08 22:00N 38°50' W 077°02'3 5.5
2017-Nov-08 21:29N 38°47' W 077°02'4 7.6
2017-Nov-08 21:00N 38°51' W 077°01'2 0.1
2017-Nov-08 02:43N 38°52' W 077°01'0 0.0
2017-Nov-08 02:28N 38°52' W 077°01'  
Track history (hours):
 
Tides and Currents Weather Stations Pressure Air Temp Water Temp Dewpoint Dewpoint Depression Visibility Wind Speed Wind Dir Waves Ship Positions

Spirit Of Mount Vernon

Owner: Spirit Cruises, washington, DC. More information available from US FCC via Universal Licensing System and Coast Guard Vessel Documentation Center.

Last reported at 2017-Nov-18 02:26 UTC. Time now 2017-Nov-18 17:53 UTC.
Position N 38°52' W 077°01'.

Length 50 m; draft 2.3 m.

Type: Passenger vessel. MMSI: 367022930.

Date/timePositionNaut miles runAvg speedWind from/ knotsBaromVisibWave heightAir tempDewpointWater temp
2017-Nov-18 02:26N 38°52' W 077°01'1 3.0
2017-Nov-18 02:00N 38°51' W 077°01'3 6.7
2017-Nov-18 01:30N 38°48' W 077°02'0 0.7
2017-Nov-18 01:00N 38°48' W 077°02'2 4.2
2017-Nov-18 00:30N 38°50' W 077°02'3 4.2
2017-Nov-17 23:49N 38°52' W 077°01'0 0.0
2017-Nov-17 23:29N 38°52' W 077°01'0 0.0
2017-Nov-17 22:53N 38°52' W 077°01'0 0.0
2017-Nov-17 22:27N 38°52' W 077°01'0 0.0
2017-Nov-17 21:59N 38°52' W 077°01'0 0.0
2017-Nov-17 21:26N 38°52' W 077°01'0 0.0
2017-Nov-17 20:58N 38°52' W 077°01'0 0.0
2017-Nov-16 02:32N 38°52' W 077°01'0 0.0
2017-Nov-16 02:26N 38°52' W 077°01'2 5.3
2017-Nov-16 02:00N 38°50' W 077°02'3 5.0
2017-Nov-16 01:30N 38°48' W 077°02'2 3.1
2017-Nov-16 00:58N 38°46' W 077°02'3 6.6
2017-Nov-16 00:30N 38°49' W 077°02'3 6.2
2017-Nov-15 23:57N 38°52' W 077°01'0 0.0
2017-Nov-15 23:30N 38°52' W 077°01'0 0.0
2017-Nov-15 23:00N 38°52' W 077°01'0 0.0
2017-Nov-15 22:28N 38°52' W 077°01'0 0.0
2017-Nov-15 22:00N 38°52' W 077°01'0 0.0
2017-Nov-15 21:30N 38°52' W 077°01'0 0.0
2017-Nov-15 20:57N 38°52' W 077°01'0 0.0
2017-Nov-15 20:30N 38°52' W 077°01'0 0.0
2017-Nov-15 01:59N 38°52' W 077°01'1 2.1
2017-Nov-15 01:30N 38°51' W 077°02'0 0.2
2017-Nov-15 01:00N 38°51' W 077°01'1 2.6
2017-Nov-15 00:30N 38°53' W 077°02'0 0.5
2017-Nov-14 23:58N 38°52' W 077°01'0 0.0
2017-Nov-14 23:28N 38°52' W 077°01'0 0.0
2017-Nov-14 22:58N 38°52' W 077°01'0 0.0
2017-Nov-14 22:29N 38°52' W 077°01'0 0.0
2017-Nov-14 21:58N 38°52' W 077°01'0 0.0
2017-Nov-14 21:28N 38°52' W 077°01'0 0.0
2017-Nov-14 20:59N 38°52' W 077°01'  
2017-Nov-12 03:15N 38°52' W 077°01'0 0.0
2017-Nov-12 03:00N 38°52' W 077°01'0 0.1
2017-Nov-12 02:26N 38°52' W 077°01'2 4.8
2017-Nov-12 01:57N 38°50' W 077°02'3 6.1
2017-Nov-12 01:29N 38°47' W 077°02'1 1.8
2017-Nov-12 01:00N 38°48' W 077°02'4 6.3
2017-Nov-12 00:24N 38°52' W 077°01'1 1.6
2017-Nov-11 23:59N 38°52' W 077°01'0 0.0
2017-Nov-11 23:28N 38°52' W 077°01'0 0.0
2017-Nov-11 22:58N 38°52' W 077°01'0 0.0
2017-Nov-11 22:28N 38°52' W 077°01'0 0.0
2017-Nov-11 21:59N 38°52' W 077°01'0 0.0
2017-Nov-11 03:04N 38°52' W 077°01'0 0.0
2017-Nov-11 03:00N 38°52' W 077°01'2 4.3
2017-Nov-11 02:30N 38°50' W 077°02'2 4.2
2017-Nov-11 01:59N 38°48' W 077°02'3 5.7
2017-Nov-11 01:29N 38°51' W 077°01'0 0.7
2017-Nov-11 01:00N 38°51' W 077°02'1 2.1
2017-Nov-11 00:28N 38°52' W 077°01'0 0.0
2017-Nov-10 23:58N 38°52' W 077°01'0 0.0
2017-Nov-10 23:25N 38°52' W 077°01'0 0.0
2017-Nov-10 22:58N 38°52' W 077°01'0 0.0
2017-Nov-10 22:28N 38°52' W 077°01'0 0.0
2017-Nov-10 21:58N 38°52' W 077°01'0 0.0
2017-Nov-10 02:35N 38°52' W 077°01'0 0.0
2017-Nov-10 02:29N 38°52' W 077°01'1 2.8
2017-Nov-10 01:59N 38°51' W 077°01'3 6.9
2017-Nov-10 01:29N 38°48' W 077°02'1 1.3
2017-Nov-10 01:00N 38°47' W 077°02'3 5.7
2017-Nov-10 00:30N 38°50' W 077°02'3 4.2
2017-Nov-09 23:53N 38°52' W 077°01'0 0.0
2017-Nov-09 23:24N 38°52' W 077°01'0 0.0
2017-Nov-09 22:54N 38°52' W 077°01'0 0.0
2017-Nov-09 22:28N 38°52' W 077°01'0 0.0
2017-Nov-09 21:59N 38°52' W 077°01'0 0.0
2017-Nov-09 21:29N 38°52' W 077°01'0 0.0
2017-Nov-09 20:56N 38°52' W 077°01'0 0.0
2017-Nov-09 20:30N 38°52' W 077°01'0 0.0
2017-Nov-09 03:04N 38°52' W 077°01'0 0.0
2017-Nov-09 03:00N 38°52' W 077°01'4 7.5
2017-Nov-09 02:29N 38°49' W 077°02'2 3.8
2017-Nov-09 01:58N 38°47' W 077°02'2 5.3
2017-Nov-09 01:30N 38°49' W 077°02'2 3.8
2017-Nov-09 01:00N 38°51' W 077°01'2 2.9
2017-Nov-09 00:29N 38°52' W 077°01'0 0.0
2017-Nov-08 23:46N 38°52' W 077°01'0 0.0
2017-Nov-08 23:27N 38°52' W 077°01'0 0.0
2017-Nov-08 23:00N 38°52' W 077°01'1 1.4
2017-Nov-08 22:27N 38°52' W 077°01'2 4.1
2017-Nov-08 22:00N 38°50' W 077°02'3 5.5
2017-Nov-08 21:29N 38°47' W 077°02'4 7.6
2017-Nov-08 21:00N 38°51' W 077°01'2 0.1
2017-Nov-08 02:43N 38°52' W 077°01'0 0.0
2017-Nov-08 02:28N 38°52' W 077°01'  

Dump ship's entire track history